Time;durP1;ratioP1;P1;durP2;ratioP2;P2;SDS_P1;SDS_P2;PMS_P1;PMS_P2;Temp;Humidity;BMP_temperature;BMP_pressure;BME280_temperature;BME280_humidity;BME280_pressure;Samples;Min_cycle;Max_cycle;Signal;HPM_P1;HPM_P2
2022/07/14 00:00:15;;;;;;;2.53;1.23;;;;;;;27.67;42.19;102014.47;5028977;28;20128;-70
2022/07/14 00:02:41;;;;;;;2.95;1.30;;;;;;;27.67;42.04;102022.53;5029365;28;20083;-70
2022/07/14 00:05:06;;;;;;;2.58;1.20;;;;;;;27.66;42.21;102015.41;5029704;28;20107;-70
2022/07/14 00:07:32;;;;;;;3.83;1.25;;;;;;;27.66;42.20;102021.66;5029828;28;20057;-70
2022/07/14 00:09:57;;;;;;;2.50;1.10;;;;;;;27.67;41.94;102017.16;5029427;28;20041;-70
2022/07/14 00:12:22;;;;;;;2.95;1.15;;;;;;;27.65;42.14;102021.69;5029139;28;20026;-70
2022/07/14 00:14:48;;;;;;;2.97;1.20;;;;;;;27.65;41.94;102014.53;5028005;28;20029;-69
2022/07/14 00:17:13;;;;;;;2.28;1.00;;;;;;;27.64;42.26;102004.75;5029663;28;20124;-70
2022/07/14 00:19:38;;;;;;;3.22;1.20;;;;;;;27.64;41.97;101998.50;5029023;28;20025;-70
2022/07/14 00:22:04;;;;;;;2.75;1.10;;;;;;;27.63;41.84;101994.13;5028965;28;20037;-70
2022/07/14 00:24:29;;;;;;;2.15;1.00;;;;;;;27.63;41.74;102003.00;5029255;28;20061;-70
2022/07/14 00:26:55;;;;;;;2.20;1.20;;;;;;;27.62;42.08;102001.28;5028860;28;20043;-70
2022/07/14 00:29:21;;;;;;;2.80;1.10;;;;;;;27.62;41.98;102000.41;5029053;28;20523;-70
2022/07/14 00:31:46;;;;;;;3.42;1.33;;;;;;;27.61;41.94;102001.34;5027467;28;20770;-69
2022/07/14 00:34:12;;;;;;;3.05;1.10;;;;;;;27.61;42.24;101998.66;5027879;28;20152;-71
2022/07/14 00:36:37;;;;;;;2.67;1.20;;;;;;;27.59;41.85;102004.06;5027864;28;20053;-70
2022/07/14 00:39:03;;;;;;;4.03;1.30;;;;;;;27.60;41.90;102007.63;5028085;28;20034;-70
2022/07/14 00:41:28;;;;;;;3.50;1.25;;;;;;;27.58;41.86;102001.44;5028830;28;20037;-70
2022/07/14 00:43:54;;;;;;;1.85;1.00;;;;;;;27.58;42.12;102007.66;5028452;28;20041;-70
2022/07/14 00:46:19;;;;;;;2.58;1.20;;;;;;;27.57;42.18;101997.03;5029233;28;20128;-70
2022/07/14 00:48:44;;;;;;;2.38;1.00;;;;;;;27.56;42.13;101989.94;5028334;28;20047;-70
2022/07/14 00:51:10;;;;;;;3.92;1.20;;;;;;;27.54;42.08;101995.34;5028321;28;20025;-69
2022/07/14 00:53:35;;;;;;;2.78;1.20;;;;;;;27.56;42.08;101998.84;5027613;28;20037;-70
2022/07/14 00:56:00;;;;;;;3.47;1.20;;;;;;;27.56;42.04;101996.16;5028901;28;20050;-70
2022/07/14 00:58:26;;;;;;;2.80;1.20;;;;;;;27.55;41.81;101994.41;5024621;28;20022;-70
2022/07/14 01:00:51;;;;;;;3.40;1.20;;;;;;;27.56;41.99;101990.81;5027738;28;20459;-70
2022/07/14 01:03:17;;;;;;;2.22;1.02;;;;;;;27.54;41.83;101987.31;5028051;28;20034;-70
2022/07/14 01:05:42;;;;;;;2.08;1.00;;;;;;;27.53;42.02;101996.28;5029035;28;20532;-70
2022/07/14 01:08:08;;;;;;;2.60;1.10;;;;;;;27.51;41.86;102003.47;5028692;28;20049;-70
2022/07/14 01:10:33;;;;;;;3.53;1.10;;;;;;;27.52;41.94;101999.88;5028553;28;20029;-70
2022/07/14 01:13:01;;;;;;;2.97;1.30;;;;;;;27.51;42.02;101999.94;5027690;28;20060;-70
2022/07/14 01:15:28;;;;;;;2.75;1.02;;;;;;;27.48;42.15;101989.31;5028001;28;20030;-70
2022/07/14 01:17:53;;;;;;;3.05;1.20;;;;;;;27.46;42.00;101987.56;5028506;28;20464;-70
2022/07/14 01:20:19;;;;;;;2.78;1.10;;;;;;;27.45;42.19;101987.63;5028150;28;20080;-70
2022/07/14 01:22:48;;;;;;;2.92;1.33;;;;;;;27.43;42.24;101987.69;5026526;28;20033;-70
2022/07/14 01:25:15;;;;;;;3.65;1.20;;;;;;;27.40;41.98;101987.81;5026955;28;20044;-70
2022/07/14 01:27:41;;;;;;;2.67;1.10;;;;;;;27.39;42.05;101986.06;5028238;28;20734;-70
2022/07/14 01:30:07;;;;;;;2.47;1.10;;;;;;;27.40;41.98;101982.44;5027779;28;20087;-70
2022/07/14 01:32:34;;;;;;;2.58;0.98;;;;;;;27.38;42.09;101983.47;5027203;28;20060;-70
2022/07/14 01:35:03;;;;;;;3.10;1.30;;;;;;;27.38;42.09;101989.69;5028036;28;21727;-71
2022/07/14 01:37:28;;;;;;;2.20;1.13;;;;;;;27.38;42.04;101986.13;5027533;28;20132;-70
2022/07/14 01:39:54;;;;;;;2.92;1.10;;;;;;;27.36;42.13;101988.00;5028380;28;20116;-71
2022/07/14 01:42:19;;;;;;;3.53;1.30;;;;;;;27.40;41.98;101981.56;5027312;28;20057;-70
2022/07/14 01:44:45;;;;;;;2.42;1.10;;;;;;;27.38;42.15;101983.47;5026738;28;20025;-70
2022/07/14 01:47:10;;;;;;;2.72;1.15;;;;;;;27.39;41.97;101978.03;5027528;28;20033;-70
2022/07/14 01:49:36;;;;;;;4.18;1.40;;;;;;;27.34;42.09;101971.09;5027831;28;20667;-70
2022/07/14 01:52:03;;;;;;;2.30;1.10;;;;;;;27.35;41.96;101972.84;5026582;28;20044;-70
2022/07/14 01:54:29;;;;;;;2.08;1.00;;;;;;;27.35;42.17;101972.84;5027636;28;20472;-70
2022/07/14 01:56:55;;;;;;;2.97;1.30;;;;;;;27.34;42.19;101971.09;5027552;28;20484;-71
2022/07/14 01:59:20;;;;;;;2.17;1.02;;;;;;;27.34;42.09;101980.00;5026891;28;20040;-71
2022/07/14 02:01:46;;;;;;;2.35;1.05;;;;;;;27.36;41.84;101979.97;5027032;28;20037;-71
2022/07/14 02:04:14;;;;;;;2.55;1.30;;;;;;;27.32;41.87;101983.69;5026967;28;20484;-70
2022/07/14 02:06:45;;;;;;;2.38;1.05;;;;;;;27.32;42.08;101981.91;5027522;28;20100;-70
2022/07/14 02:09:11;;;;;;;2.92;1.00;;;;;;;27.33;42.08;101983.63;5027474;28;20075;-70
2022/07/14 02:14:20;;;;;;;2.35;0.93;;;;;;;27.30;41.80;101977.53;5025281;28;20115;-70
2022/07/14 02:16:46;;;;;;;2.22;1.20;;;;;;;27.31;41.76;101977.47;5025958;28;20025;-70
2022/07/14 02:19:12;;;;;;;2.80;1.13;;;;;;;27.31;41.92;101972.13;5025215;28;20025;-71
2022/07/14 02:21:41;;;;;;;2.75;1.10;;;;;;;27.30;41.93;101975.72;5025812;28;20045;-70
2022/07/14 02:24:07;;;;;;;2.00;1.10;;;;;;;27.31;41.87;101979.28;5027392;28;20376;-70
2022/07/14 02:26:33;;;;;;;2.83;1.10;;;;;;;27.30;41.92;101980.19;5027379;28;20021;-71
2022/07/14 02:28:58;;;;;;;2.22;1.02;;;;;;;27.29;41.89;101982.00;5026104;28;20102;-70
2022/07/14 02:31:24;;;;;;;2.70;1.30;;;;;;;27.28;41.75;101974.03;5026177;28;20471;-70
2022/07/14 02:33:49;;;;;;;2.30;1.20;;;;;;;27.26;41.72;101979.47;5026859;28;20103;-70
2022/07/14 02:36:15;;;;;;;2.63;1.10;;;;;;;27.27;41.76;101972.28;5026255;28;20030;-70
2022/07/14 02:38:40;;;;;;;2.08;1.00;;;;;;;27.27;41.71;101977.63;5026402;28;20029;-71
2022/07/14 02:41:06;;;;;;;2.60;1.20;;;;;;;27.27;41.62;101975.81;5025897;28;20064;-70
2022/07/14 02:43:32;;;;;;;2.28;1.13;;;;;;;27.25;41.90;101971.47;5025101;28;20121;-71
2022/07/14 02:45:59;;;;;;;3.03;1.13;;;;;;;27.26;41.82;101982.13;5026652;28;20052;-70
2022/07/14 02:48:25;;;;;;;2.20;1.10;;;;;;;27.25;41.97;101976.84;5026749;28;20033;-70
2022/07/14 02:50:51;;;;;;;2.75;1.00;;;;;;;27.23;41.86;101979.56;5026012;28;20118;-70
2022/07/14 02:53:16;;;;;;;1.83;1.02;;;;;;;27.25;41.67;101976.84;5026410;28;20065;-70
2022/07/14 02:55:42;;;;;;;2.60;1.20;;;;;;;27.24;41.61;101983.13;5026631;28;20030;-70
2022/07/14 02:58:07;;;;;;;2.50;1.17;;;;;;;27.22;41.49;101984.97;5025677;28;20026;-70
2022/07/14 03:00:33;;;;;;;3.00;1.20;;;;;;;27.21;41.76;101986.75;5026245;28;20046;-70
2022/07/14 03:03:00;;;;;;;1.70;0.98;;;;;;;27.24;41.68;101993.81;5026495;28;20095;-70
2022/07/14 03:05:26;;;;;;;2.45;1.00;;;;;;;27.22;41.69;101993.88;5026933;28;20029;-70
2022/07/14 03:07:52;;;;;;;2.22;1.10;;;;;;;27.24;41.48;101985.78;5026727;28;20068;-70
2022/07/14 03:10:17;;;;;;;2.75;1.15;;;;;;;27.25;41.66;101993.78;5026229;28;20112;-70
2022/07/14 03:12:43;;;;;;;2.35;1.10;;;;;;;27.22;41.74;101990.31;5025264;28;20033;-70
2022/07/14 03:15:09;;;;;;;2.20;1.10;;;;;;;27.23;41.67;101992.94;5025255;28;20076;-70
2022/07/14 03:17:35;;;;;;;2.25;1.00;;;;;;;27.23;41.36;101997.44;5026629;28;20538;-70
2022/07/14 03:20:00;;;;;;;3.55;1.10;;;;;;;27.22;41.65;101987.63;5026496;28;20045;-70
2022/07/14 03:22:26;;;;;;;2.50;1.02;;;;;;;27.21;41.57;101989.44;5025607;28;20040;-71
2022/07/14 03:24:52;;;;;;;2.25;1.20;;;;;;;27.18;41.48;101988.69;5028590;28;20792;-70
2022/07/14 03:27:17;;;;;;;3.20;1.20;;;;;;;27.16;41.61;101986.06;5029748;28;20036;-70
2022/07/14 03:29:43;;;;;;;1.98;1.08;;;;;;;27.15;41.75;101992.34;5030115;28;20067;-70
2022/07/14 03:32:08;;;;;;;1.40;0.90;;;;;;;27.14;41.81;101995.97;5029275;28;20781;-70
2022/07/14 03:34:33;;;;;;;2.85;1.30;;;;;;;27.16;41.76;101990.56;5029135;28;20057;-70
2022/07/14 03:36:59;;;;;;;2.97;1.10;;;;;;;27.13;41.60;101991.56;5030538;28;20108;-70
2022/07/14 03:39:25;;;;;;;1.80;0.90;;;;;;;27.13;41.57;101988.88;5030150;28;20115;-70
2022/07/14 03:41:51;;;;;;;1.75;1.00;;;;;;;27.11;41.50;101990.75;5029578;28;20112;-71
2022/07/14 03:44:16;;;;;;;2.80;1.05;;;;;;;27.11;41.72;101990.75;5029273;28;20033;-70
2022/07/14 03:46:41;;;;;;;2.20;1.00;;;;;;;27.10;41.84;101994.34;5029766;28;20056;-70
2022/07/14 03:49:07;;;;;;;2.28;1.10;;;;;;;27.11;41.28;101989.84;5002772;28;20510;-70
2022/07/14 03:51:32;;;;;;;2.20;1.02;;;;;;;27.12;41.52;101983.59;5029367;28;20128;-70
2022/07/14 03:53:57;;;;;;;2.13;1.10;;;;;;;27.12;41.39;101978.22;5029288;28;20139;-70
2022/07/14 03:56:23;;;;;;;2.35;0.93;;;;;;;27.10;41.63;101980.06;5029546;28;20065;-70
2022/07/14 03:58:48;;;;;;;1.80;0.90;;;;;;;27.10;41.67;101982.75;5029286;28;20549;-70
2022/07/14 04:01:14;;;;;;;2.20;1.02;;;;;;;27.10;41.53;101993.47;5029246;28;20766;-70
2022/07/14 04:03:39;;;;;;;2.08;1.10;;;;;;;27.11;41.45;101990.75;5029988;28;20033;-71
2022/07/14 04:06:04;;;;;;;2.15;1.10;;;;;;;27.09;41.56;101992.59;5029325;28;20071;-70
2022/07/14 04:08:30;;;;;;;1.60;1.00;;;;;;;27.08;41.67;102001.53;5029920;28;20044;-70
2022/07/14 04:10:56;;;;;;;1.90;1.00;;;;;;;27.08;41.60;101993.50;5028968;28;20030;-70
2022/07/14 04:13:21;;;;;;;2.13;1.00;;;;;;;27.08;41.45;101990.00;5029043;28;20128;-70
2022/07/14 04:15:47;;;;;;;2.65;1.10;;;;;;;27.05;41.49;101985.63;5028804;28;20109;-70
2022/07/14 04:18:13;;;;;;;1.92;1.10;;;;;;;27.05;41.26;101978.47;5029584;28;20033;-70
2022/07/14 04:20:38;;;;;;;1.95;1.05;;;;;;;27.05;41.50;101980.25;5029230;28;20443;-70
2022/07/14 04:23:04;;;;;;;2.15;1.10;;;;;;;27.02;41.48;101978.56;5027779;28;20129;-70
2022/07/14 04:25:30;;;;;;;2.08;0.90;;;;;;;27.03;41.55;101977.63;5029328;28;20033;-71
2022/07/14 04:27:55;;;;;;;2.00;1.02;;;;;;;27.00;41.55;101974.22;5028501;28;20684;-70
2022/07/14 04:30:21;;;;;;;3.55;1.10;;;;;;;26.97;41.47;101975.19;5028684;28;20793;-70
2022/07/14 04:32:46;;;;;;;1.85;0.90;;;;;;;26.96;41.49;101970.75;5028838;28;20560;-70
2022/07/14 04:35:12;;;;;;;2.08;1.00;;;;;;;26.98;41.55;101968.03;5027997;28;20095;-70
2022/07/14 04:37:38;;;;;;;2.05;1.00;;;;;;;26.99;41.39;101976.00;5011087;28;20025;-70
2022/07/14 04:40:04;;;;;;;3.65;1.10;;;;;;;26.98;41.48;101973.38;5028859;28;20045;-70
2022/07/14 04:42:30;;;;;;;4.28;0.98;;;;;;;26.97;41.34;101975.19;5028121;28;20032;-70
2022/07/14 04:44:56;;;;;;;1.90;1.10;;;;;;;27.00;41.29;101982.25;5028826;28;20380;-70
2022/07/14 04:47:21;;;;;;;2.25;1.08;;;;;;;27.00;41.26;101974.22;5028887;28;20033;-70
2022/07/14 04:52:30;;;;;;;2.25;1.10;;;;;;;26.96;41.11;101981.47;5028235;28;20079;-70
2022/07/14 04:54:56;;;;;;;3.45;1.13;;;;;;;26.95;41.15;101985.09;5028744;28;20041;-70
2022/07/14 04:57:22;;;;;;;2.13;1.00;;;;;;;26.91;41.56;101986.13;5027985;28;20101;-70
2022/07/14 04:59:48;;;;;;;2.15;1.00;;;;;;;26.92;41.42;101984.31;5028230;28;20475;-70
2022/07/14 05:02:13;;;;;;;3.47;1.10;;;;;;;26.93;41.33;101981.59;5027975;28;20041;-70
2022/07/14 05:04:39;;;;;;;1.50;1.00;;;;;;;26.93;41.23;101983.41;5029214;28;20029;-71
2022/07/14 05:07:04;;;;;;;2.45;1.00;;;;;;;26.94;41.18;101990.50;5028534;28;20107;-70
2022/07/14 05:09:33;;;;;;;2.20;1.10;;;;;;;26.94;41.23;101988.69;5028025;28;20458;-70
2022/07/14 05:12:00;;;;;;;1.40;1.00;;;;;;;26.95;41.41;101986.91;5027387;28;20021;-70
2022/07/14 05:14:25;;;;;;;1.70;1.00;;;;;;;26.96;41.15;101988.63;5028569;28;20450;-70
2022/07/14 05:16:50;;;;;;;2.38;1.02;;;;;;;26.96;41.06;101978.78;5028159;28;20039;-71
2022/07/14 05:19:17;;;;;;;1.70;0.95;;;;;;;26.99;40.92;101976.00;5027720;28;20100;-70
2022/07/14 05:21:43;;;;;;;3.95;1.00;;;;;;;26.99;41.20;101988.53;5027900;28;20033;-71
2022/07/14 05:24:08;;;;;;;1.65;1.00;;;;;;;26.99;41.05;101989.41;5028514;28;20910;-71
2022/07/14 05:26:34;;;;;;;1.48;0.80;;;;;;;27.03;41.02;101982.97;5027496;28;20064;-70
2022/07/14 05:28:59;;;;;;;2.55;1.20;;;;;;;27.03;41.07;101982.09;5026384;28;20033;-70
2022/07/14 05:31:24;;;;;;;2.00;0.95;;;;;;;27.02;41.07;101983.03;5027845;28;20107;-70
2022/07/14 05:33:50;;;;;;;2.10;1.00;;;;;;;27.03;41.10;101987.47;5028313;28;20065;-71
2022/07/14 05:36:15;;;;;;;2.00;1.00;;;;;;;27.04;41.04;101982.06;5027912;28;20033;-71
2022/07/14 05:38:41;;;;;;;1.85;0.90;;;;;;;27.05;40.81;101988.28;5028201;28;20029;-71
2022/07/14 05:41:07;;;;;;;2.90;1.10;;;;;;;27.08;40.93;101985.47;5025614;28;20061;-71
2022/07/14 05:43:32;;;;;;;1.77;1.00;;;;;;;27.10;40.83;101990.78;5027269;28;20029;-71
2022/07/14 05:46:08;;;;;;;1.48;1.00;;;;;;;27.12;40.76;101988.94;5027312;28;20032;-71
2022/07/14 05:48:35;;;;;;;1.83;1.10;;;;;;;27.12;40.95;101992.47;5027472;28;20459;-70
2022/07/14 05:51:07;;;;;;;1.80;0.98;;;;;;;27.16;40.89;101993.22;5025266;28;20116;-71
2022/07/14 05:53:33;;;;;;;1.88;1.10;;;;;;;27.18;40.89;101991.38;5027520;28;20053;-71
2022/07/14 05:55:59;;;;;;;2.25;1.00;;;;;;;27.32;40.70;101989.94;5027197;28;20656;-71
2022/07/14 05:58:25;;;;;;;1.70;1.00;;;;;;;27.44;40.50;101986.78;5026466;28;20506;-71
2022/07/14 06:00:50;;;;;;;1.75;1.00;;;;;;;27.50;40.28;101980.31;5026812;28;20034;-71
2022/07/14 06:03:15;;;;;;;1.52;1.00;;;;;;;27.54;40.34;101975.72;5027207;28;20067;-71
2022/07/14 06:05:41;;;;;;;2.30;1.08;;;;;;;27.65;40.29;101985.06;5027426;28;20030;-71
2022/07/14 06:08:07;;;;;;;3.10;0.95;;;;;;;27.77;39.96;101983.69;5026158;28;20109;-71
2022/07/14 06:10:32;;;;;;;2.42;1.10;;;;;;;27.82;39.77;101979.88;5026707;28;20331;-70
2022/07/14 06:12:58;;;;;;;1.63;0.90;;;;;;;27.96;39.42;101981.13;5026085;28;20511;-70
2022/07/14 06:15:23;;;;;;;1.40;0.90;;;;;;;28.06;39.29;101991.41;5027192;28;20038;-71
2022/07/14 06:17:48;;;;;;;1.70;1.00;;;;;;;28.12;39.32;101993.81;5026892;28;20142;-70
2022/07/14 06:20:14;;;;;;;2.08;0.90;;;;;;;28.05;39.31;101989.69;5026776;28;20041;-70
2022/07/14 06:22:39;;;;;;;2.00;0.90;;;;;;;28.11;39.47;101991.22;5025381;28;20056;-70
2022/07/14 06:25:05;;;;;;;1.90;0.95;;;;;;;28.08;39.54;101994.91;5027028;28;20026;-70
2022/07/14 06:27:31;;;;;;;1.48;0.95;;;;;;;28.09;39.41;101993.97;5026521;28;20041;-70
2022/07/14 06:29:56;;;;;;;1.40;0.90;;;;;;;28.06;39.48;101996.75;5026639;28;20038;-70
2022/07/14 06:32:23;;;;;;;9.20;1.00;;;;;;;28.04;39.62;101993.28;5025644;28;20029;-70
2022/07/14 06:34:49;;;;;;;2.08;0.90;;;;;;;28.02;39.85;101995.16;5026930;28;20183;-70
2022/07/14 06:37:15;;;;;;;1.73;0.93;;;;;;;28.02;39.63;101999.66;5027100;28;20446;-70
2022/07/14 06:39:41;;;;;;;1.58;0.90;;;;;;;27.99;39.78;101994.44;5026718;28;20025;-70
2022/07/14 06:42:07;;;;;;;2.00;0.80;;;;;;;28.02;39.90;102003.19;5025334;28;20080;-70
2022/07/14 06:44:33;;;;;;;2.38;0.90;;;;;;;27.95;39.84;101995.47;5026555;28;20384;-70
2022/07/14 06:46:58;;;;;;;1.40;0.90;;;;;;;27.97;39.63;101993.59;5026659;28;20033;-70
2022/07/14 06:49:24;;;;;;;1.42;0.80;;;;;;;27.94;39.91;101981.19;5026562;28;20025;-70
2022/07/14 06:51:50;;;;;;;1.83;1.00;;;;;;;27.88;40.09;101984.13;5025561;28;20045;-70
2022/07/14 06:54:16;;;;;;;2.03;1.08;;;;;;;27.86;40.44;101977.97;5026325;28;20044;-70
2022/07/14 06:56:41;;;;;;;1.63;0.98;;;;;;;27.84;40.59;101974.47;5026046;28;20057;-70
2022/07/14 06:59:07;;;;;;;1.50;0.80;;;;;;;27.83;40.40;101973.59;5026032;28;20033;-70
2022/07/14 07:01:32;;;;;;;2.33;1.10;;;;;;;27.84;40.32;101978.03;5026062;28;20118;-70
2022/07/14 07:03:58;;;;;;;2.80;0.90;;;;;;;27.88;40.35;101969.84;5026326;28;20045;-70
2022/07/14 07:09:07;;;;;;;1.40;0.90;;;;;;;27.93;40.35;101967.88;5025271;28;20044;-70
2022/07/14 07:11:33;;;;;;;1.67;0.82;;;;;;;28.00;40.33;101963.97;5024619;28;20033;-70
2022/07/14 07:13:59;;;;;;;2.13;1.02;;;;;;;28.01;40.37;101971.09;5026532;28;20095;-69
2022/07/14 07:16:25;;;;;;;1.80;0.95;;;;;;;28.00;40.10;101972.91;5026530;28;20093;-70
2022/07/14 07:18:50;;;;;;;1.65;0.80;;;;;;;27.98;40.13;101964.06;5026348;28;20029;-70
2022/07/14 07:21:18;;;;;;;2.88;0.90;;;;;;;28.00;40.20;101966.66;5025992;28;20479;-70
2022/07/14 07:23:46;;;;;;;1.95;0.90;;;;;;;28.02;40.05;101968.34;5026860;28;20132;-70
2022/07/14 07:26:12;;;;;;;2.90;1.00;;;;;;;28.06;40.16;101972.63;5025413;28;20034;-69
2022/07/14 07:28:38;;;;;;;3.13;0.80;;;;;;;28.09;40.14;101960.91;5026515;28;20026;-70
2022/07/14 07:31:03;;;;;;;1.55;0.85;;;;;;;28.05;39.98;101965.56;5025632;28;20591;-70
2022/07/14 07:33:28;;;;;;;1.48;0.80;;;;;;;28.05;40.23;101957.50;5026545;28;20579;-70
2022/07/14 07:35:54;;;;;;;2.38;1.00;;;;;;;28.06;40.17;101961.91;5026152;28;20037;-70
2022/07/14 07:38:19;;;;;;;1.63;0.80;;;;;;;28.09;40.25;101953.75;5026218;28;20430;-70
2022/07/14 07:40:47;;;;;;;1.63;0.80;;;;;;;28.11;40.18;101957.25;5025975;28;20061;-70
2022/07/14 07:43:13;;;;;;;1.83;0.80;;;;;;;28.13;40.06;101967.88;5026536;28;20033;-70
2022/07/14 07:45:38;;;;;;;1.65;0.80;;;;;;;28.09;40.07;101967.16;5026293;28;20056;-70
2022/07/14 07:48:04;;;;;;;2.15;0.73;;;;;;;28.13;39.95;101965.22;5025750;28;20034;-70
2022/07/14 07:50:30;;;;;;;1.27;0.80;;;;;;;28.14;40.16;101970.53;5025884;28;20037;-70
2022/07/14 07:52:55;;;;;;;1.77;0.80;;;;;;;28.11;40.05;101965.28;5025410;28;20063;-71
2022/07/14 07:55:21;;;;;;;2.00;0.90;;;;;;;28.13;40.24;101960.75;5025836;28;20041;-70
2022/07/14 07:57:46;;;;;;;1.63;0.70;;;;;;;28.16;40.16;101960.63;5025515;28;20014;-71
2022/07/14 08:00:13;;;;;;;1.10;0.80;;;;;;;28.17;40.08;101959.72;5026049;28;20034;-71
2022/07/14 08:02:50;;;;;;;1.80;0.90;;;;;;;28.20;39.90;101956.00;5025760;28;20045;-71
2022/07/14 08:05:17;;;;;;;1.73;0.70;;;;;;;28.21;40.08;101955.06;5025089;28;20637;-71
2022/07/14 08:07:42;;;;;;;1.20;0.70;;;;;;;28.22;39.90;101955.00;5026244;28;20032;-71
2022/07/14 08:10:08;;;;;;;1.25;0.80;;;;;;;28.24;39.75;101953.13;5027102;28;20822;-71
2022/07/14 08:12:34;;;;;;;1.35;0.70;;;;;;;28.26;39.87;101942.34;5028338;28;20029;-71
2022/07/14 08:14:59;;;;;;;1.75;0.80;;;;;;;28.26;39.82;101936.97;5027557;28;20044;-71
2022/07/14 08:17:24;;;;;;;1.20;0.80;;;;;;;28.30;40.12;101935.88;5028606;28;20121;-71
2022/07/14 08:19:50;;;;;;;1.48;0.80;;;;;;;28.32;39.87;101941.19;5029438;28;20435;-71
2022/07/14 08:22:24;;;;;;;1.85;0.80;;;;;;;28.30;39.73;101943.09;5028256;28;20061;-71
2022/07/14 08:24:50;;;;;;;1.42;0.80;;;;;;;28.33;40.05;101945.63;5029542;28;20037;-71
2022/07/14 08:27:15;;;;;;;1.80;0.75;;;;;;;28.32;39.98;101934.00;5028794;28;20022;-71
2022/07/14 08:29:42;;;;;;;1.13;0.80;;;;;;;28.31;39.85;101932.28;5029386;28;20104;-71
2022/07/14 08:32:07;;;;;;;1.50;0.70;;;;;;;28.31;40.06;101918.84;5028576;28;20500;-71
2022/07/14 08:34:33;;;;;;;1.70;0.80;;;;;;;28.33;39.90;101925.03;5025010;28;20061;-71
2022/07/14 08:37:01;;;;;;;2.08;0.88;;;;;;;28.37;40.21;101929.31;5029153;28;20059;-71
2022/07/14 08:39:27;;;;;;;1.20;0.75;;;;;;;28.37;40.04;101921.28;5028641;28;20398;-71
2022/07/14 08:41:54;;;;;;;1.40;0.70;;;;;;;28.39;39.89;101922.09;5028016;28;20036;-71
2022/07/14 08:44:20;;;;;;;1.50;0.70;;;;;;;28.38;39.77;101914.97;5029334;28;20091;-71
2022/07/14 08:46:47;;;;;;;1.65;0.73;;;;;;;28.39;39.90;101911.34;5029205;28;20034;-71
2022/07/14 08:49:14;;;;;;;1.50;0.80;;;;;;;28.39;40.18;101914.03;5028787;28;20029;-71
2022/07/14 08:51:42;;;;;;;1.63;0.70;;;;;;;28.41;40.16;101911.28;5027525;28;20041;-71
2022/07/14 08:54:10;;;;;;;1.45;0.77;;;;;;;28.40;39.73;101917.59;5028858;28;20117;-71
2022/07/14 08:56:37;;;;;;;1.13;0.70;;;;;;;28.39;40.00;101914.03;5028534;28;20037;-71
2022/07/14 08:59:03;;;;;;;1.55;0.80;;;;;;;28.41;39.83;101912.16;5028154;28;20092;-70
2022/07/14 09:01:28;;;;;;;0.90;0.60;;;;;;;28.42;39.83;101905.84;5027482;28;20029;-71
2022/07/14 09:03:54;;;;;;;1.75;0.77;;;;;;;28.39;39.86;101899.75;5028538;28;20032;-71
2022/07/14 09:06:48;;;;;;;1.38;0.75;;;;;;;28.40;40.02;101912.22;5029091;28;20029;-71
2022/07/14 09:09:22;;;;;;;1.00;0.60;;;;;;;28.43;40.06;101906.72;5028790;28;20471;-71
2022/07/14 09:11:54;;;;;;;2.67;0.70;;;;;;;28.40;40.01;101902.38;5027910;28;20071;-71
2022/07/14 09:14:19;;;;;;;1.30;0.80;;;;;;;28.39;39.69;101906.00;5028930;28;20841;-71
2022/07/14 09:16:45;;;;;;;1.80;0.70;;;;;;;28.34;40.07;101910.69;5028406;28;20120;-71
2022/07/14 09:19:13;;;;;;;1.48;0.70;;;;;;;28.33;39.80;101900.91;5027602;28;20124;-71
2022/07/14 09:21:44;;;;;;;0.88;0.70;;;;;;;28.35;40.17;101903.53;5027100;28;20087;-71
2022/07/14 09:24:10;;;;;;;1.30;0.73;;;;;;;28.30;40.06;101898.34;5028426;28;20036;-71
2022/07/14 09:26:47;;;;;;;1.13;0.70;;;;;;;28.33;39.96;101900.03;5027447;28;20432;-71
2022/07/14 09:29:31;;;;;;;1.80;0.80;;;;;;;28.33;39.89;101908.06;5028168;28;20450;-71
2022/07/14 09:31:56;;;;;;;;;;;;;;;28.33;39.71;101900.03;5027939;28;20029;-71
2022/07/14 09:34:31;;;;;;;1.17;0.60;;;;;;;28.30;39.87;101897.50;5027677;28;19917;-71
2022/07/14 09:37:17;;;;;;;1.65;0.70;;;;;;;28.30;40.04;101901.03;5027910;28;20079;-71
2022/07/14 09:39:56;;;;;;;1.15;0.70;;;;;;;28.30;40.17;101903.69;5027624;28;20030;-71
2022/07/14 09:42:44;;;;;;;1.50;0.70;;;;;;;28.31;40.27;101908.13;5026314;28;20041;-70
2022/07/14 09:45:10;;;;;;;0.98;0.65;;;;;;;28.28;40.06;101908.28;5005524;28;20814;-71
2022/07/14 09:47:54;;;;;;;0.80;0.60;;;;;;;28.32;40.16;101911.69;5027789;28;20033;-72
2022/07/14 09:50:38;;;;;;;1.23;0.70;;;;;;;28.35;39.94;101916.94;5027473;28;20040;-71
2022/07/14 09:53:09;;;;;;;;;;;;;;;28.38;39.74;101916.78;5027051;28;20072;-71
2022/07/14 09:55:36;;;;;;;1.10;0.68;;;;;;;28.38;39.66;101912.28;5026798;28;19943;-71
2022/07/14 09:58:05;;;;;;;1.27;0.70;;;;;;;28.38;39.94;101911.41;5025836;28;20033;-72
2022/07/14 10:00:32;;;;;;;1.55;0.70;;;;;;;28.35;39.70;101908.88;5026694;28;20499;-72
2022/07/14 10:03:02;;;;;;;0.90;0.70;;;;;;;28.33;39.60;101911.63;5027065;28;20037;-71
2022/07/14 10:05:28;;;;;;;1.23;0.60;;;;;;;28.34;39.67;101902.66;5027179;28;20029;-71
2022/07/14 10:07:56;;;;;;;0.90;0.60;;;;;;;28.35;39.54;101909.75;5027536;28;20442;-71
2022/07/14 10:10:21;;;;;;;0.90;0.60;;;;;;;28.33;39.65;101908.06;5026516;28;20575;-72
2022/07/14 10:12:48;;;;;;;1.70;0.80;;;;;;;28.34;39.70;101908.00;5027248;28;20033;-71
2022/07/14 10:15:14;;;;;;;1.30;0.70;;;;;;;28.36;39.82;101910.63;5026764;28;20044;-71
2022/07/14 10:17:41;;;;;;;1.50;0.60;;;;;;;28.33;39.84;101902.72;5027220;28;20660;-71
2022/07/14 10:20:11;;;;;;;0.90;0.60;;;;;;;28.32;39.59;101901.84;5026978;28;20053;-72
2022/07/14 10:22:38;;;;;;;1.67;0.80;;;;;;;28.33;39.61;101900.91;5026344;28;20048;-72
2022/07/14 10:25:05;;;;;;;0.98;0.50;;;;;;;28.32;39.50;101906.31;5026391;28;20533;-71
2022/07/14 10:27:31;;;;;;;0.85;0.50;;;;;;;28.28;39.57;101908.28;5027143;28;20058;-71
2022/07/14 10:29:57;;;;;;;0.85;0.60;;;;;;;28.30;39.72;101908.22;5027268;28;20053;-71
2022/07/14 10:32:26;;;;;;;1.13;0.70;;;;;;;28.28;39.69;101908.28;5026211;28;20041;-71
2022/07/14 10:35:18;;;;;;;1.88;0.60;;;;;;;28.30;39.84;101908.22;5025947;28;20607;-71
2022/07/14 10:38:07;;;;;;;1.15;0.60;;;;;;;28.30;39.94;101918.94;5026547;28;20032;-71
2022/07/14 10:40:41;;;;;;;1.27;0.70;;;;;;;28.28;39.77;101915.44;5026102;28;20029;-71
2022/07/14 10:43:15;;;;;;;1.80;0.70;;;;;;;28.28;39.94;101913.66;5026622;28;20167;-72
2022/07/14 10:45:52;;;;;;;1.40;0.70;;;;;;;28.27;39.83;101911.03;5026412;28;20635;-71
2022/07/14 10:48:31;;;;;;;0.80;0.50;;;;;;;28.27;39.70;101905.66;5026387;28;20025;-71
2022/07/14 10:51:26;;;;;;;0.93;0.60;;;;;;;28.26;39.70;101907.47;5025626;28;20108;-71
2022/07/14 10:54:04;;;;;;;1.10;0.70;;;;;;;28.28;39.43;101905.59;5026513;28;20495;-72
2022/07/14 10:56:29;;;;;;;1.17;0.60;;;;;;;28.27;39.93;101906.53;5026385;28;20033;-72
2022/07/14 10:59:26;;;;;;;1.08;0.60;;;;;;;28.28;39.87;101907.41;5026591;28;20111;-71
2022/07/14 11:02:13;;;;;;;0.95;0.60;;;;;;;28.30;39.54;101903.69;5025533;28;20033;-71
2022/07/14 11:05:03;;;;;;;1.50;0.60;;;;;;;28.28;39.78;101905.59;5026570;28;20038;-71
2022/07/14 11:08:06;;;;;;;1.80;0.50;;;;;;;28.29;39.69;101909.16;5026866;28;20029;-70
2022/07/14 11:10:32;;;;;;;0.93;0.60;;;;;;;28.28;39.51;101904.72;5025155;28;20032;-71
2022/07/14 11:13:00;;;;;;;1.05;0.60;;;;;;;28.28;39.41;101894.88;5026418;28;20044;-70
2022/07/14 11:15:34;;;;;;;1.38;0.50;;;;;;;28.23;39.52;101895.09;5026563;28;20029;-71
2022/07/14 11:18:29;;;;;;;0.80;0.55;;;;;;;28.21;39.67;101898.75;5026316;28;20037;-70
2022/07/14 11:21:00;;;;;;;1.75;0.60;;;;;;;28.19;39.56;101904.19;5025451;28;20546;-71
2022/07/14 11:23:27;;;;;;;1.05;0.60;;;;;;;28.23;40.03;101908.50;5026119;28;20112;-71
2022/07/14 11:25:54;;;;;;;0.88;0.50;;;;;;;28.25;39.38;101900.34;5025689;28;20079;-71
2022/07/14 11:28:31;;;;;;;0.90;0.60;;;;;;;28.26;39.67;101902.09;5026066;28;20022;-71
2022/07/14 11:31:26;;;;;;;0.93;0.60;;;;;;;28.31;39.38;101909.94;5025470;28;20021;-71
2022/07/14 11:36:59;;;;;;;0.63;0.52;;;;;;;28.23;39.52;101905.81;5026548;28;20044;-71
2022/07/14 11:39:31;;;;;;;0.70;0.50;;;;;;;28.25;39.49;101911.97;5025702;28;20532;-70